createdAt,value
2022-08-11T00:02:35.231Z,102104.94
2022-08-11T00:05:10.487Z,102099.00
2022-08-11T00:07:52.219Z,102098.13
2022-08-11T00:10:26.070Z,102097.72
2022-08-11T00:13:04.793Z,102092.19
2022-08-11T00:15:58.450Z,102101.53
2022-08-11T00:18:31.618Z,102091.72
2022-08-11T00:21:00.388Z,102100.59
2022-08-11T00:23:30.238Z,102092.09
2022-08-11T00:25:57.855Z,102096.34
2022-08-11T00:28:28.281Z,102099.94
2022-08-11T00:30:58.062Z,102095.91
2022-08-11T00:33:44.249Z,102090.28
2022-08-11T00:36:16.254Z,102087.13
2022-08-11T00:38:49.774Z,102089.69
2022-08-11T00:41:32.757Z,102083.75
2022-08-11T00:44:28.851Z,102080.56
2022-08-11T00:47:33.234Z,102078.97
2022-08-11T00:50:04.884Z,102080.94
2022-08-11T00:52:53.515Z,102091.50
2022-08-11T00:55:57.272Z,102088.56
2022-08-11T00:58:51.123Z,102094.06
2022-08-11T01:01:18.155Z,102096.94
2022-08-11T01:04:17.244Z,102099.03
2022-08-11T01:07:01.968Z,102097.56
2022-08-11T01:09:40.887Z,102101.50
2022-08-11T01:12:44.879Z,102107.31
2022-08-11T01:15:33.165Z,102106.63
2022-08-11T01:18:28.767Z,102098.22
2022-08-11T01:21:42.408Z,102094.56
2022-08-11T01:24:46.189Z,102103.75
2022-08-11T01:27:32.752Z,102097.03
2022-08-11T01:30:42.229Z,102105.56
2022-08-11T01:33:27.827Z,102096.09
2022-08-11T01:36:28.619Z,102099.44
2022-08-11T01:39:32.742Z,102101.53
2022-08-11T01:42:33.619Z,102099.06
2022-08-11T01:45:09.150Z,102093.94
2022-08-11T01:47:54.362Z,102102.41
2022-08-11T01:50:46.575Z,102094.72
2022-08-11T01:53:30.835Z,102099.59
2022-08-11T01:56:09.312Z,102098.47
2022-08-11T01:58:58.110Z,102104.44
2022-08-11T02:01:40.913Z,102098.53
2022-08-11T02:04:48.636Z,102098.28
2022-08-11T02:07:55.609Z,102102.75
2022-08-11T02:11:23.276Z,102097.22
2022-08-11T02:14:19.224Z,102099.06
2022-08-11T02:16:57.946Z,102089.09
2022-08-11T02:20:06.741Z,102090.59
2022-08-11T02:23:58.644Z,102087.25
2022-08-11T02:26:37.250Z,102087.13
2022-08-11T02:29:21.987Z,102094.00
2022-08-11T02:32:52.194Z,102084.97
2022-08-11T02:35:36.799Z,102088.03
2022-08-11T02:38:32.246Z,102088.31
2022-08-11T02:41:56.480Z,102083.59
2022-08-11T02:44:57.477Z,102083.75
2022-08-11T02:48:33.459Z,102089.47
2022-08-11T02:51:12.503Z,102089.34
2022-08-11T02:54:05.895Z,102083.38
2022-08-11T02:57:03.477Z,102078.34
2022-08-11T03:00:07.573Z,102084.88
2022-08-11T03:03:02.772Z,102086.16
2022-08-11T03:06:14.376Z,102090.81
2022-08-11T03:08:58.059Z,102087.09
2022-08-11T03:12:21.680Z,102087.28
2022-08-11T03:16:05.093Z,102085.31
2022-08-11T03:18:41.571Z,102076.50
2022-08-11T03:21:23.790Z,102086.94
2022-08-11T03:24:43.139Z,102090.53
2022-08-11T03:27:34.047Z,102087.34
2022-08-11T03:30:43.990Z,102084.88
2022-08-11T03:33:44.470Z,102099.09
2022-08-11T03:37:15.091Z,102088.75
2022-08-11T03:39:51.133Z,102100.22
2022-08-11T03:42:41.934Z,102087.53
2022-08-11T03:45:14.604Z,102082.03
2022-08-11T03:48:02.688Z,102079.84
2022-08-11T03:51:03.638Z,102082.41
2022-08-11T03:54:16.114Z,102082.97
2022-08-11T03:57:06.414Z,102078.53
2022-08-11T04:00:04.263Z,102092.19
2022-08-11T04:03:08.083Z,102089.34
2022-08-11T04:06:07.271Z,102090.28
2022-08-11T04:09:34.177Z,102087.91
2022-08-11T04:12:36.495Z,102085.91
2022-08-11T04:16:00.743Z,102092.94
2022-08-11T04:19:13.003Z,102090.19
2022-08-11T04:22:38.013Z,102080.13
2022-08-11T04:25:16.622Z,102091.03
2022-08-11T04:28:29.113Z,102083.25
2022-08-11T04:31:52.042Z,102091.22
2022-08-11T04:34:48.649Z,102091.69
2022-08-11T04:37:37.133Z,102090.38
2022-08-11T04:40:27.871Z,102084.66
2022-08-11T04:43:21.512Z,102086.94
2022-08-11T04:46:22.287Z,102078.31
2022-08-11T04:49:34.052Z,102080.09
2022-08-11T04:52:38.465Z,102086.16
2022-08-11T04:56:01.176Z,102087.88
2022-08-11T04:58:55.604Z,102086.78
2022-08-11T05:02:17.931Z,102080.31
2022-08-11T05:05:21.109Z,102085.03
2022-08-11T05:08:12.817Z,102080.44
2022-08-11T05:11:29.785Z,102076.84
2022-08-11T05:14:51.293Z,102084.00
2022-08-11T05:17:56.634Z,102086.91
2022-08-11T05:20:46.324Z,102084.38
2022-08-11T05:23:33.628Z,102079.09
2022-08-11T05:26:46.249Z,102084.00
2022-08-11T05:30:07.262Z,102085.41
2022-08-11T05:33:01.950Z,102082.94
2022-08-11T05:36:00.825Z,102081.13
2022-08-11T05:38:53.282Z,102091.00
2022-08-11T05:41:46.206Z,102087.25
2022-08-11T05:44:39.244Z,102093.81
2022-08-11T05:47:25.754Z,102088.78
2022-08-11T05:50:15.094Z,102093.69
2022-08-11T05:53:09.270Z,102081.41
2022-08-11T05:56:02.401Z,102091.66
2022-08-11T05:58:42.655Z,102095.38
2022-08-11T06:01:14.889Z,102085.78
2022-08-11T06:04:04.352Z,102090.81
2022-08-11T06:06:31.776Z,102093.03
2022-08-11T06:09:00.997Z,102087.09
2022-08-11T06:11:43.828Z,102090.28
2022-08-11T06:14:15.588Z,102093.69
2022-08-11T06:16:45.851Z,102096.06
2022-08-11T06:19:18.254Z,102094.53
2022-08-11T06:21:47.911Z,102096.44
2022-08-11T06:24:16.189Z,102094.75
2022-08-11T06:27:11.778Z,102090.91
2022-08-11T06:29:55.178Z,102095.13
2022-08-11T06:32:46.825Z,102092.28
2022-08-11T06:35:48.957Z,102097.53
2022-08-11T06:38:50.084Z,102095.38
2022-08-11T06:41:32.350Z,102088.63
2022-08-11T06:44:14.281Z,102101.28
2022-08-11T06:46:48.576Z,102100.50
2022-08-11T06:49:37.543Z,102098.97
2022-08-11T06:52:34.915Z,102102.41
2022-08-11T06:55:57.917Z,102102.66
2022-08-11T06:58:54.621Z,102093.91
2022-08-11T07:01:47.893Z,102100.22
2022-08-11T07:04:43.201Z,102100.06
2022-08-11T07:08:34.779Z,102096.53
2022-08-11T07:11:42.387Z,102095.31
2022-08-11T07:14:38.284Z,102093.00
2022-08-11T07:17:11.884Z,102102.03
2022-08-11T07:20:02.084Z,102098.72
2022-08-11T07:22:49.923Z,102094.94
2022-08-11T07:25:36.827Z,102091.38
2022-08-11T07:28:31.213Z,102097.41
2022-08-11T07:31:07.910Z,102092.78
2022-08-11T07:34:06.375Z,102090.88
2022-08-11T07:36:48.546Z,102091.81
2022-08-11T07:39:28.054Z,102095.09
2022-08-11T07:41:58.806Z,102093.72
2022-08-11T07:44:34.763Z,102097.06
2022-08-11T07:47:20.868Z,102089.84
2022-08-11T07:50:09.229Z,102095.97
2022-08-11T07:52:38.391Z,102089.06
2022-08-11T07:55:19.703Z,102097.78
2022-08-11T07:58:15.849Z,102102.38
2022-08-11T08:01:21.793Z,102092.81
2022-08-11T08:04:09.499Z,102106.22
2022-08-11T08:06:56.535Z,102094.34
2022-08-11T08:09:45.270Z,102103.97
2022-08-11T08:12:32.021Z,102095.44
2022-08-11T08:15:18.358Z,102101.88
2022-08-11T08:18:20.477Z,102102.34
2022-08-11T08:20:46.666Z,102097.16
2022-08-11T08:23:17.143Z,102095.97
2022-08-11T08:25:49.737Z,102095.75
2022-08-11T08:28:23.374Z,102106.00
2022-08-11T08:30:52.468Z,102097.88
2022-08-11T08:33:45.996Z,102103.47
2022-08-11T08:36:14.741Z,102108.09
2022-08-11T08:38:50.379Z,102102.69
2022-08-11T08:41:29.841Z,102105.50
2022-08-11T08:44:35.155Z,102105.03
2022-08-11T08:47:01.206Z,102102.69
2022-08-11T08:49:40.551Z,102095.78
2022-08-11T08:52:23.746Z,102091.81
2022-08-11T08:55:08.760Z,102093.13
2022-08-11T08:57:40.359Z,102086.81
2022-08-11T09:00:13.053Z,102096.63
2022-08-11T09:02:45.987Z,102083.78
2022-08-11T09:05:17.184Z,102090.13
2022-08-11T09:07:47.598Z,102084.06
2022-08-11T09:10:21.798Z,102082.84
2022-08-11T09:12:52.763Z,102082.78
2022-08-11T09:15:22.262Z,102079.47
2022-08-11T09:18:01.426Z,102076.72
2022-08-11T09:20:35.327Z,102076.09
2022-08-11T09:26:35.351Z,102071.69
2022-08-11T09:29:04.659Z,102070.91
2022-08-11T09:31:39.846Z,102079.94
2022-08-11T09:34:10.481Z,102064.88
2022-08-11T09:37:00.330Z,102063.78
2022-08-11T09:39:48.190Z,102062.63
2022-08-11T09:42:23.571Z,102054.56
2022-08-11T09:45:00.966Z,102052.06
2022-08-11T09:47:36.252Z,102050.34
2022-08-11T09:50:04.341Z,102043.63
2022-08-11T09:52:36.573Z,102047.25
2022-08-11T09:55:10.849Z,102039.41
2022-08-11T09:58:04.274Z,102037.41
2022-08-11T10:00:38.050Z,102048.13
2022-08-11T10:03:13.947Z,102029.59
2022-08-11T10:06:08.162Z,102031.28
2022-08-11T10:08:39.330Z,102024.50
2022-08-11T10:11:12.845Z,102022.16
2022-08-11T10:14:32.662Z,102018.72
2022-08-11T10:16:56.562Z,102016.44
2022-08-11T10:19:24.710Z,102015.28
2022-08-11T10:22:13.887Z,102010.16
2022-08-11T10:25:02.777Z,102006.47
2022-08-11T10:27:55.206Z,102008.56
2022-08-11T10:30:42.449Z,101999.25
2022-08-11T10:33:37.823Z,101996.22
2022-08-11T10:36:16.284Z,101982.53
2022-08-11T10:38:46.871Z,101984.06
2022-08-11T10:41:33.065Z,101986.00
2022-08-11T10:44:06.581Z,101985.72
2022-08-11T10:46:54.478Z,101984.47
2022-08-11T10:49:25.468Z,101978.75
2022-08-11T10:52:17.491Z,101968.81
2022-08-11T10:55:05.566Z,101977.34
2022-08-11T10:58:05.079Z,101975.84
2022-08-11T11:00:36.159Z,101975.56
2022-08-11T11:03:22.832Z,101975.28
2022-08-11T11:06:28.195Z,101970.47
2022-08-11T11:08:52.823Z,101977.78
2022-08-11T11:11:46.089Z,101967.25
2022-08-11T11:14:46.246Z,101973.06
2022-08-11T11:17:57.633Z,101958.03
2022-08-11T11:20:36.241Z,101963.78
2022-08-11T11:23:26.112Z,101967.75
2022-08-11T11:26:11.743Z,101963.38
2022-08-11T11:29:02.062Z,101956.66
2022-08-11T11:32:14.717Z,101952.22
2022-08-11T11:35:15.721Z,101951.22
2022-08-11T11:37:56.128Z,101957.75
2022-08-11T11:40:32.423Z,101956.97
2022-08-11T11:43:00.457Z,101956.72
2022-08-11T11:45:27.613Z,101947.72
2022-08-11T11:48:00.365Z,101953.47
2022-08-11T11:50:39.279Z,101952.28
2022-08-11T11:53:11.113Z,101944.06
2022-08-11T11:55:41.074Z,101948.06
2022-08-11T11:58:26.929Z,101947.75
2022-08-11T12:01:15.619Z,101946.66
2022-08-11T12:03:49.759Z,101946.84
2022-08-11T12:06:27.598Z,101946.00
2022-08-11T12:09:00.463Z,101944.00
2022-08-11T12:11:48.474Z,101931.13
2022-08-11T12:14:21.001Z,101939.53
2022-08-11T12:16:51.410Z,101939.94
2022-08-11T12:19:28.628Z,101928.00
2022-08-11T12:22:17.479Z,101928.84
2022-08-11T12:25:04.839Z,101922.16
2022-08-11T12:27:34.580Z,101919.03
2022-08-11T12:30:09.426Z,101924.44
2022-08-11T12:32:41.448Z,101922.22
2022-08-11T12:35:14.985Z,101903.75
2022-08-11T12:38:09.959Z,101907.34
2022-08-11T12:44:06.435Z,101908.38
2022-08-11T12:46:38.008Z,101900.72
2022-08-11T12:49:45.376Z,101901.41
2022-08-11T12:52:29.557Z,101899.75
2022-08-11T12:55:13.420Z,101893.09
2022-08-11T12:58:08.118Z,101892.41
2022-08-11T13:00:56.260Z,101881.28
2022-08-11T13:03:44.432Z,101887.84
2022-08-11T13:06:28.712Z,101884.88
2022-08-11T13:09:01.082Z,101885.88
2022-08-11T13:11:56.744Z,101882.34
2022-08-11T13:14:29.260Z,101878.31
2022-08-11T13:17:14.935Z,101885.13
2022-08-11T13:19:49.671Z,101878.50
2022-08-11T13:22:22.278Z,101869.88
2022-08-11T13:24:50.398Z,101873.44
2022-08-11T13:27:20.874Z,101865.00
2022-08-11T13:30:13.400Z,101858.13
2022-08-11T13:32:42.945Z,101860.19
2022-08-11T13:35:16.225Z,101863.38
2022-08-11T13:38:17.346Z,101850.56
2022-08-11T13:40:55.241Z,101850.56
2022-08-11T13:43:25.820Z,101851.16
2022-08-11T13:46:13.473Z,101857.91
2022-08-11T13:48:42.319Z,101850.91
2022-08-11T13:51:40.908Z,101850.00
2022-08-11T13:54:18.946Z,101855.91
2022-08-11T13:56:53.613Z,101846.84
2022-08-11T13:59:30.031Z,101844.88
2022-08-11T14:02:27.953Z,101840.06
2022-08-11T14:05:07.141Z,101833.34
2022-08-11T14:07:52.108Z,101828.97
2022-08-11T14:10:23.406Z,101836.06
2022-08-11T14:13:41.608Z,101829.91
2022-08-11T14:16:20.017Z,101823.69
2022-08-11T14:18:52.419Z,101820.84
2022-08-11T14:21:42.453Z,101805.28
2022-08-11T14:24:14.547Z,101818.22
2022-08-11T14:26:43.489Z,101814.13
2022-08-11T14:31:59.509Z,101803.34
2022-08-11T14:34:35.679Z,101813.03
2022-08-11T14:37:20.265Z,101798.03
2022-08-11T14:40:33.238Z,101801.88
2022-08-11T14:44:10.471Z,101805.25
2022-08-11T14:46:49.043Z,101798.31
2022-08-11T14:49:16.379Z,101796.41
2022-08-11T14:51:46.974Z,101796.56
2022-08-11T14:54:35.754Z,101798.31
2022-08-11T14:57:05.213Z,101801.69
2022-08-11T14:59:34.995Z,101793.28
2022-08-11T15:02:22.749Z,101791.53
2022-08-11T15:04:56.159Z,101784.75
2022-08-11T15:07:32.373Z,101787.84
2022-08-11T15:10:13.770Z,101786.44
2022-08-11T15:12:46.526Z,101780.53
2022-08-11T15:15:36.428Z,101782.94
2022-08-11T15:18:13.621Z,101778.16
2022-08-11T15:20:59.528Z,101770.28
2022-08-11T15:23:45.277Z,101774.31
2022-08-11T15:26:58.725Z,101767.47
2022-08-11T15:29:49.384Z,101767.94
2022-08-11T15:32:23.793Z,101765.66
2022-08-11T15:35:19.617Z,101761.91
2022-08-11T15:37:52.696Z,101757.78
2022-08-11T15:41:03.177Z,101754.00
2022-08-11T15:44:06.318Z,101748.00
2022-08-11T15:46:55.160Z,101748.56
2022-08-11T15:50:10.672Z,101747.16
2022-08-11T15:52:33.281Z,101754.31
2022-08-11T15:55:11.190Z,101754.50
2022-08-11T15:58:00.465Z,101745.78
2022-08-11T16:00:46.634Z,101750.97
2022-08-11T16:04:06.448Z,101747.91
2022-08-11T16:06:28.552Z,101741.19
2022-08-11T16:09:00.789Z,101738.50
2022-08-11T16:11:28.440Z,101733.09
2022-08-11T16:14:15.249Z,101737.91
2022-08-11T16:16:46.013Z,101735.72
2022-08-11T16:19:19.075Z,101738.47
2022-08-11T16:21:50.543Z,101729.50
2022-08-11T16:27:02.421Z,101732.84
2022-08-11T16:27:14.610Z,101730.44
2022-08-11T16:29:54.670Z,101731.72
2022-08-11T16:32:23.901Z,101727.25
2022-08-11T16:35:19.367Z,101727.91
2022-08-11T16:38:06.563Z,101729.59
2022-08-11T16:40:34.634Z,101735.28
2022-08-11T16:43:24.672Z,101725.31
2022-08-11T16:46:11.974Z,101737.56
2022-08-11T16:48:43.645Z,101719.63
2022-08-11T16:51:15.343Z,101727.50
2022-08-11T16:54:04.583Z,101719.06
2022-08-11T16:56:48.189Z,101716.72
2022-08-11T16:59:23.116Z,101720.31
2022-08-11T17:02:35.734Z,101715.34
2022-08-11T17:05:29.466Z,101712.50
2022-08-11T17:08:17.251Z,101717.63
2022-08-11T17:11:23.582Z,101720.94
2022-08-11T17:14:12.416Z,101718.78
2022-08-11T17:16:41.066Z,101713.22
2022-08-11T17:19:16.943Z,101715.44
2022-08-11T17:22:06.741Z,101718.22
2022-08-11T17:24:45.091Z,101708.16
2022-08-11T17:27:19.561Z,101713.84
2022-08-11T17:29:54.970Z,101720.56
2022-08-11T17:32:56.781Z,101721.66
2022-08-11T17:35:42.989Z,101716.06
2022-08-11T17:38:20.861Z,101716.66
2022-08-11T17:41:25.063Z,101716.09
2022-08-11T17:44:14.393Z,101712.16
2022-08-11T17:47:06.256Z,101717.19
2022-08-11T17:49:38.090Z,101713.84
2022-08-11T17:52:28.809Z,101710.19
2022-08-11T17:55:16.866Z,101714.63
2022-08-11T17:58:22.885Z,101714.88
2022-08-11T18:00:54.354Z,101726.06
2022-08-11T18:03:39.332Z,101724.06
2022-08-11T18:06:13.749Z,101719.88
2022-08-11T18:09:05.485Z,101718.34
2022-08-11T18:12:10.763Z,101721.13
2022-08-11T18:15:03.318Z,101715.75
2022-08-11T18:17:52.383Z,101723.84
2022-08-11T18:20:37.958Z,101727.47
2022-08-11T18:23:45.932Z,101728.47
2022-08-11T18:26:38.901Z,101733.19
2022-08-11T18:29:27.255Z,101737.06
2022-08-11T18:32:20.703Z,101740.84
2022-08-11T18:35:09.359Z,101749.13
2022-08-11T18:37:58.153Z,101741.81
2022-08-11T18:40:48.005Z,101743.84
2022-08-11T18:43:35.428Z,101743.53
2022-08-11T18:46:25.861Z,101738.78
2022-08-11T18:49:20.068Z,101741.91
2022-08-11T18:52:11.259Z,101754.06
2022-08-11T18:55:02.004Z,101750.22
2022-08-11T18:57:54.676Z,101757.25
2022-08-11T19:00:42.229Z,101750.94
2022-08-11T19:03:31.077Z,101755.13
2022-08-11T19:06:39.882Z,101751.22
2022-08-11T19:09:31.072Z,101763.25
2022-08-11T19:12:22.519Z,101757.09
2022-08-11T19:15:10.183Z,101765.25
2022-08-11T19:18:00.168Z,101760.84
2022-08-11T19:20:49.338Z,101761.13
2022-08-11T19:23:44.765Z,101767.72
2022-08-11T19:26:36.555Z,101766.09
2022-08-11T19:30:11.070Z,101770.22
2022-08-11T19:32:33.619Z,101764.63
2022-08-11T19:35:21.237Z,101775.44
2022-08-11T19:38:10.640Z,101769.38
2022-08-11T19:41:00.463Z,101771.31
2022-08-11T19:43:48.474Z,101767.75
2022-08-11T19:46:37.288Z,101773.75
2022-08-11T19:49:23.392Z,101776.59
2022-08-11T19:52:09.314Z,101769.41
2022-08-11T19:54:59.590Z,101770.09
2022-08-11T19:57:45.430Z,101774.69
2022-08-11T20:00:36.692Z,101766.44
2022-08-11T20:03:27.937Z,101769.88
2022-08-11T20:06:18.991Z,101770.97
2022-08-11T20:09:08.185Z,101775.78
2022-08-11T20:12:02.136Z,101779.09
2022-08-11T20:14:54.450Z,101772.94
2022-08-11T20:17:46.153Z,101778.75
2022-08-11T20:20:34.905Z,101781.31
2022-08-11T20:23:25.238Z,101774.69
2022-08-11T20:26:30.362Z,101779.00
2022-08-11T20:29:19.100Z,101781.69
2022-08-11T20:32:06.584Z,101776.63
2022-08-11T20:34:58.574Z,101780.97
2022-08-11T20:37:51.319Z,101792.94
2022-08-11T20:40:40.305Z,101784.97
2022-08-11T20:44:05.876Z,101785.56
2022-08-11T20:46:42.840Z,101791.72
2022-08-11T20:52:38.434Z,101792.03
2022-08-11T20:55:52.142Z,101792.41
2022-08-11T21:01:45.913Z,101795.06
2022-08-11T21:04:32.839Z,101796.13
2022-08-11T21:07:28.180Z,101792.88
2022-08-11T21:10:30.214Z,101793.25
2022-08-11T21:13:25.665Z,101795.72
2022-08-11T21:16:26.207Z,101798.38
2022-08-11T21:20:01.342Z,101795.28
2022-08-11T21:23:05.937Z,101790.00
2022-08-11T21:26:04.103Z,101806.41
2022-08-11T21:28:54.664Z,101798.34
2022-08-11T21:31:40.921Z,101801.22
2022-08-11T21:34:29.707Z,101795.34
2022-08-11T21:37:19.586Z,101800.78
2022-08-11T21:40:08.252Z,101802.56
2022-08-11T21:42:58.036Z,101811.25
2022-08-11T21:45:46.658Z,101805.91
2022-08-11T21:48:32.920Z,101809.59
2022-08-11T21:51:20.898Z,101808.22
2022-08-11T21:54:07.093Z,101812.69
2022-08-11T21:56:52.880Z,101800.22
2022-08-11T21:59:50.647Z,101803.94
2022-08-11T22:02:37.420Z,101806.66
2022-08-11T22:05:28.453Z,101806.75
2022-08-11T22:08:16.179Z,101813.97
2022-08-11T22:11:02.003Z,101816.03
2022-08-11T22:14:05.964Z,101808.44
2022-08-11T22:16:54.301Z,101809.81
2022-08-11T22:19:42.211Z,101813.50
2022-08-11T22:22:31.411Z,101812.88
2022-08-11T22:25:18.836Z,101816.88
2022-08-11T22:28:11.088Z,101812.59
2022-08-11T22:30:59.131Z,101814.22
2022-08-11T22:34:02.861Z,101808.88
2022-08-11T22:36:53.724Z,101806.81
2022-08-11T22:39:40.227Z,101804.28
2022-08-11T22:42:33.160Z,101805.19
2022-08-11T22:45:32.010Z,101801.16
2022-08-11T22:48:19.400Z,101802.09
2022-08-11T22:51:07.880Z,101801.81
2022-08-11T22:53:57.950Z,101804.44
2022-08-11T22:56:46.547Z,101807.69
2022-08-11T22:59:34.811Z,101804.09
2022-08-11T23:02:22.585Z,101804.09
2022-08-11T23:05:09.509Z,101806.38
2022-08-11T23:07:59.575Z,101807.22
2022-08-11T23:10:48.417Z,101807.31
2022-08-11T23:13:34.676Z,101810.31
2022-08-11T23:16:21.356Z,101808.25
2022-08-11T23:19:08.052Z,101809.31
2022-08-11T23:21:59.437Z,101811.94
2022-08-11T23:24:44.994Z,101813.75
2022-08-11T23:27:32.253Z,101815.59
2022-08-11T23:30:20.683Z,101818.06
2022-08-11T23:33:18.041Z,101816.81
2022-08-11T23:36:09.356Z,101816.03
2022-08-11T23:39:00.245Z,101810.03
2022-08-11T23:41:46.136Z,101802.88
2022-08-11T23:44:31.326Z,101803.03
2022-08-11T23:47:22.186Z,101804.41
2022-08-11T23:50:13.236Z,101805.06
2022-08-11T23:53:09.078Z,101806.03
2022-08-11T23:55:54.357Z,101806.22
2022-08-11T23:58:41.568Z,101806.38
